createdAt,value
2022-07-27T00:00:20.476Z,1.90
2022-07-27T00:02:25.336Z,1.60
2022-07-27T00:04:31.557Z,1.90
2022-07-27T00:06:39.297Z,1.88
2022-07-27T00:08:44.184Z,2.30
2022-07-27T00:10:50.300Z,1.90
2022-07-27T00:12:55.242Z,1.75
2022-07-27T00:15:00.889Z,1.80
2022-07-27T00:17:05.863Z,1.75
2022-07-27T00:19:11.172Z,1.33
2022-07-27T00:21:16.102Z,1.60
2022-07-27T00:23:23.690Z,1.90
2022-07-27T00:25:29.556Z,1.45
2022-07-27T00:27:34.468Z,1.73
2022-07-27T00:29:39.402Z,1.77
2022-07-27T00:31:44.262Z,2.10
2022-07-27T00:33:49.335Z,1.65
2022-07-27T00:35:54.190Z,1.83
2022-07-27T00:37:59.094Z,1.60
2022-07-27T00:40:09.230Z,1.65
2022-07-27T00:42:14.114Z,2.38
2022-07-27T00:44:28.081Z,1.50
2022-07-27T00:46:33.092Z,1.60
2022-07-27T00:48:37.978Z,2.35
2022-07-27T00:50:45.530Z,1.70
2022-07-27T00:52:51.438Z,1.70
2022-07-27T00:54:56.599Z,1.70
2022-07-27T00:59:10.889Z,2.08
2022-07-27T01:01:16.472Z,1.80
2022-07-27T01:03:23.272Z,1.75
2022-07-27T01:05:36.603Z,1.95
2022-07-27T01:07:43.486Z,1.63
2022-07-27T01:10:00.923Z,1.70
2022-07-27T01:12:11.320Z,1.50
2022-07-27T01:14:19.195Z,1.80
2022-07-27T01:16:24.322Z,1.75
2022-07-27T01:18:31.453Z,1.50
2022-07-27T01:20:37.599Z,1.63
2022-07-27T01:22:45.082Z,1.77
2022-07-27T01:24:50.890Z,1.70
2022-07-27T01:26:56.205Z,1.80
2022-07-27T01:29:02.402Z,1.60
2022-07-27T01:31:07.409Z,1.83
2022-07-27T01:33:13.214Z,2.05
2022-07-27T01:35:18.091Z,2.10
2022-07-27T01:37:26.005Z,2.42
2022-07-27T01:39:34.508Z,1.92
2022-07-27T01:41:39.319Z,2.10
2022-07-27T01:43:45.229Z,2.13
2022-07-27T01:45:50.486Z,2.58
2022-07-27T01:47:56.417Z,2.20
2022-07-27T01:50:01.364Z,2.42
2022-07-27T01:52:06.385Z,1.80
2022-07-27T01:54:11.293Z,2.10
2022-07-27T01:56:19.063Z,2.20
2022-07-27T01:58:24.168Z,2.08
2022-07-27T02:02:33.682Z,2.15
2022-07-27T02:04:38.597Z,2.78
2022-07-27T02:06:43.756Z,2.75
2022-07-27T02:08:48.674Z,2.38
2022-07-27T02:11:06.016Z,2.20
2022-07-27T02:13:23.059Z,2.00
2022-07-27T02:15:42.131Z,2.20
2022-07-27T02:17:49.182Z,2.50
2022-07-27T02:19:55.416Z,2.72
2022-07-27T02:24:05.234Z,2.53
2022-07-27T02:26:11.648Z,2.60
2022-07-27T02:28:19.147Z,2.40
2022-07-27T02:30:24.055Z,2.63
2022-07-27T02:32:29.009Z,2.42
2022-07-27T02:34:33.871Z,2.60
2022-07-27T02:36:38.812Z,2.30
2022-07-27T02:38:43.596Z,2.50
2022-07-27T02:40:48.468Z,2.63
2022-07-27T02:42:53.386Z,2.80
2022-07-27T02:45:00.888Z,2.50
2022-07-27T02:47:05.726Z,2.47
2022-07-27T02:49:11.321Z,2.60
2022-07-27T02:51:16.817Z,2.80
2022-07-27T02:53:21.723Z,2.88
2022-07-27T02:55:26.956Z,2.67
2022-07-27T02:59:40.803Z,2.67
2022-07-27T03:01:49.035Z,2.50
2022-07-27T03:03:53.960Z,3.08
2022-07-27T03:05:59.020Z,2.40
2022-07-27T03:08:04.368Z,2.50
2022-07-27T03:10:10.306Z,2.50
2022-07-27T03:12:15.191Z,2.25
2022-07-27T03:14:20.211Z,2.55
2022-07-27T03:16:25.222Z,2.58
2022-07-27T03:20:38.116Z,2.95
2022-07-27T03:22:43.101Z,3.55
2022-07-27T03:24:47.946Z,2.85
2022-07-27T03:26:52.911Z,2.60
2022-07-27T03:28:57.737Z,2.58
2022-07-27T03:31:03.906Z,2.47
2022-07-27T03:33:08.872Z,2.63
2022-07-27T03:35:16.534Z,2.90
2022-07-27T03:37:21.830Z,2.92
2022-07-27T03:39:27.015Z,2.83
2022-07-27T03:41:32.072Z,5.47
2022-07-27T03:45:41.834Z,3.60
2022-07-27T03:47:46.785Z,3.08
2022-07-27T03:49:52.880Z,3.30
2022-07-27T03:52:00.448Z,2.92
2022-07-27T03:54:05.863Z,3.35
2022-07-27T03:56:10.881Z,2.80
2022-07-27T03:58:15.868Z,2.92
2022-07-27T04:00:21.003Z,3.03
2022-07-27T04:02:25.909Z,3.03
2022-07-27T04:04:31.077Z,3.30
2022-07-27T04:06:35.933Z,3.45
2022-07-27T04:08:43.504Z,3.70
2022-07-27T04:10:48.459Z,3.28
2022-07-27T04:12:53.789Z,3.00
2022-07-27T04:14:58.683Z,3.22
2022-07-27T04:17:03.879Z,3.20
2022-07-27T04:21:16.089Z,2.60
2022-07-27T04:23:20.909Z,5.50
2022-07-27T04:25:28.474Z,3.30
2022-07-27T04:27:33.558Z,2.75
2022-07-27T04:29:38.445Z,3.63
2022-07-27T04:31:43.337Z,3.60
2022-07-27T04:33:48.328Z,3.28
2022-07-27T04:35:53.179Z,3.83
2022-07-27T04:37:59.859Z,3.38
2022-07-27T04:40:05.007Z,3.22
2022-07-27T04:42:12.705Z,3.20
2022-07-27T04:44:18.567Z,2.88
2022-07-27T04:46:23.734Z,3.03
2022-07-27T04:50:33.250Z,3.20
2022-07-27T04:52:38.611Z,2.85
2022-07-27T04:54:43.508Z,3.33
2022-07-27T04:56:48.518Z,2.50
2022-07-27T04:58:56.045Z,2.90
2022-07-27T05:01:01.105Z,3.00
2022-07-27T05:03:06.463Z,3.30
2022-07-27T05:07:16.512Z,2.85
2022-07-27T05:11:27.645Z,3.08
2022-07-27T05:13:32.538Z,2.85
2022-07-27T05:15:55.132Z,2.88
2022-07-27T05:18:00.899Z,3.90
2022-07-27T05:20:06.856Z,3.97
2022-07-27T05:22:11.831Z,2.90
2022-07-27T05:24:16.710Z,3.22
2022-07-27T05:26:25.907Z,3.40
2022-07-27T05:28:31.318Z,3.65
2022-07-27T05:30:36.414Z,3.67
2022-07-27T05:34:48.839Z,3.40
2022-07-27T05:38:58.380Z,3.22
2022-07-27T05:41:03.336Z,2.92
2022-07-27T05:43:08.179Z,3.53
2022-07-27T05:45:16.925Z,2.40
2022-07-27T05:47:21.783Z,2.67
2022-07-27T05:49:29.351Z,3.13
2022-07-27T05:51:34.398Z,2.38
2022-07-27T05:53:39.389Z,2.50
2022-07-27T05:55:58.628Z,2.20
2022-07-27T05:58:05.053Z,2.20
2022-07-27T06:00:11.996Z,2.50
2022-07-27T06:02:19.811Z,2.58
2022-07-27T06:04:24.808Z,2.60
2022-07-27T06:06:44.712Z,3.20
2022-07-27T06:08:49.637Z,2.42
2022-07-27T06:12:59.719Z,2.30
2022-07-27T06:15:04.576Z,2.55
2022-07-27T06:17:10.980Z,2.35
2022-07-27T06:19:16.205Z,2.22
2022-07-27T06:23:28.755Z,2.08
2022-07-27T06:25:36.549Z,1.88
2022-07-27T06:27:41.625Z,2.83
2022-07-27T06:31:51.156Z,2.22
2022-07-27T06:33:57.758Z,2.00
2022-07-27T06:36:08.522Z,2.00
2022-07-27T06:38:13.788Z,1.88
2022-07-27T06:40:24.426Z,2.05
2022-07-27T06:42:31.416Z,2.00
2022-07-27T06:44:36.421Z,1.70
2022-07-27T06:46:41.384Z,2.38
2022-07-27T06:48:46.595Z,2.03
2022-07-27T06:52:56.102Z,2.08
2022-07-27T06:55:01.020Z,1.88
2022-07-27T06:57:08.576Z,2.15
2022-07-27T06:59:16.100Z,1.83
2022-07-27T07:01:21.145Z,1.88
2022-07-27T07:03:26.337Z,1.63
2022-07-27T07:07:36.340Z,1.73
2022-07-27T07:09:41.399Z,1.80
2022-07-27T07:11:46.256Z,1.65
2022-07-27T07:13:53.772Z,1.73
2022-07-27T07:15:59.658Z,1.90
2022-07-27T07:18:05.706Z,2.03
2022-07-27T07:20:12.360Z,1.75
2022-07-27T07:22:20.067Z,2.00
2022-07-27T07:24:25.193Z,1.80
2022-07-27T07:26:30.035Z,2.38
2022-07-27T07:28:37.065Z,1.60
2022-07-27T07:32:49.538Z,1.67
2022-07-27T07:34:56.360Z,2.40
2022-07-27T07:37:01.260Z,1.65
2022-07-27T07:39:06.582Z,2.05
2022-07-27T07:41:11.553Z,1.65
2022-07-27T07:43:16.801Z,1.83
2022-07-27T07:45:21.888Z,2.05
2022-07-27T07:49:37.979Z,2.10
2022-07-27T07:51:45.576Z,2.22
2022-07-27T07:53:50.453Z,2.15
2022-07-27T07:55:56.873Z,2.08
2022-07-27T07:58:02.006Z,2.13
2022-07-27T08:00:09.710Z,1.77
2022-07-27T08:02:21.029Z,1.85
2022-07-27T08:04:28.562Z,2.08
2022-07-27T08:06:33.547Z,2.00
2022-07-27T08:10:43.260Z,1.88
2022-07-27T08:12:50.675Z,1.75
2022-07-27T08:14:55.573Z,2.40
2022-07-27T08:17:00.487Z,2.72
2022-07-27T08:21:12.864Z,1.80
2022-07-27T08:23:18.517Z,2.00
2022-07-27T08:25:23.439Z,2.50
2022-07-27T08:27:28.504Z,1.98
2022-07-27T08:31:51.678Z,2.28
2022-07-27T08:36:02.643Z,1.90
2022-07-27T08:38:11.957Z,2.85
2022-07-27T08:42:45.693Z,2.25
2022-07-27T08:44:54.742Z,2.75
2022-07-27T08:47:00.189Z,2.42
2022-07-27T08:49:05.407Z,2.20
2022-07-27T08:51:10.511Z,1.90
2022-07-27T08:55:24.015Z,2.05
2022-07-27T08:57:28.882Z,1.80
2022-07-27T08:59:33.818Z,2.30
2022-07-27T09:01:39.563Z,1.80
2022-07-27T09:03:44.713Z,1.45
2022-07-27T09:05:54.160Z,3.35
2022-07-27T09:08:11.986Z,1.63
2022-07-27T09:10:32.090Z,2.30
2022-07-27T09:12:37.178Z,2.20
2022-07-27T09:14:43.894Z,1.92
2022-07-27T09:19:16.934Z,1.83
2022-07-27T09:21:23.648Z,1.80
2022-07-27T09:23:30.092Z,1.83
2022-07-27T09:26:02.093Z,2.60
2022-07-27T09:28:03.343Z,2.17
2022-07-27T09:34:30.952Z,1.90
2022-07-27T09:36:35.992Z,1.85
2022-07-27T09:40:49.807Z,2.08
2022-07-27T09:44:19.761Z,1.90
2022-07-27T09:45:40.261Z,2.15
2022-07-27T09:47:46.934Z,1.80
2022-07-27T09:49:51.867Z,2.05
2022-07-27T09:52:00.593Z,1.98
2022-07-27T09:54:11.447Z,1.98
2022-07-27T09:56:19.144Z,2.00
2022-07-27T09:58:23.943Z,1.70
2022-07-27T10:00:29.805Z,1.70
2022-07-27T10:02:34.743Z,1.45
2022-07-27T10:04:39.630Z,1.67
2022-07-27T10:07:01.768Z,1.83
2022-07-27T10:09:07.595Z,1.90
2022-07-27T10:13:20.124Z,1.90
2022-07-27T10:15:26.017Z,1.23
2022-07-27T10:17:31.411Z,1.55
2022-07-27T10:19:44.089Z,1.80
2022-07-27T10:21:50.414Z,1.70
2022-07-27T10:24:00.351Z,1.58
2022-07-27T10:26:21.474Z,1.80
2022-07-27T10:28:32.591Z,1.70
2022-07-27T10:30:37.698Z,1.50
2022-07-27T10:32:44.912Z,1.60
2022-07-27T10:34:51.940Z,1.83
2022-07-27T10:36:57.078Z,1.77
2022-07-27T10:39:03.917Z,1.60
2022-07-27T10:41:24.279Z,1.77
2022-07-27T10:43:33.289Z,1.80
2022-07-27T10:45:58.278Z,1.85
2022-07-27T10:48:07.842Z,1.75
2022-07-27T10:50:25.109Z,1.95
2022-07-27T10:52:44.311Z,1.95
2022-07-27T10:54:53.575Z,1.63
2022-07-27T10:57:06.907Z,1.85
2022-07-27T10:59:16.229Z,1.88
2022-07-27T11:01:25.131Z,2.10
2022-07-27T11:03:33.583Z,2.15
2022-07-27T11:06:00.073Z,1.98
2022-07-27T11:10:30.273Z,1.90
2022-07-27T11:12:35.166Z,2.05
2022-07-27T11:16:56.588Z,2.45
2022-07-27T11:19:07.635Z,2.08
2022-07-27T11:21:26.507Z,1.83
2022-07-27T11:26:00.403Z,2.20
2022-07-27T11:28:10.020Z,1.75
2022-07-27T11:30:28.455Z,1.90
2022-07-27T11:32:38.626Z,1.75
2022-07-27T11:34:43.644Z,1.83
2022-07-27T11:38:56.810Z,1.42
2022-07-27T11:41:15.332Z,1.73
2022-07-27T11:43:39.987Z,1.88
2022-07-27T11:45:49.684Z,1.70
2022-07-27T11:47:59.667Z,2.10
2022-07-27T11:50:08.362Z,1.50
2022-07-27T11:52:14.133Z,1.45
2022-07-27T11:54:26.227Z,1.80
2022-07-27T11:56:33.649Z,1.13
2022-07-27T11:59:03.638Z,1.52
2022-07-27T12:01:11.227Z,1.92
2022-07-27T12:03:23.593Z,1.55
2022-07-27T12:05:37.061Z,1.50
2022-07-27T12:07:42.333Z,2.30
2022-07-27T12:09:49.894Z,1.80
2022-07-27T12:11:57.824Z,1.60
2022-07-27T12:14:02.676Z,1.30
2022-07-27T12:16:07.742Z,1.75
2022-07-27T12:18:15.218Z,1.83
2022-07-27T12:20:24.324Z,1.52
2022-07-27T12:22:31.930Z,1.92
2022-07-27T12:24:38.931Z,2.20
2022-07-27T12:26:43.871Z,1.80
2022-07-27T12:28:48.814Z,1.67
2022-07-27T12:32:59.675Z,1.67
2022-07-27T12:37:23.242Z,1.90
